createdAt,value
2022-09-13T00:00:04.226Z,99641.13
2022-09-13T00:02:52.749Z,99688.28
2022-09-13T00:05:41.317Z,99682.72
2022-09-13T00:08:29.887Z,99675.16
2022-09-13T00:11:20.040Z,99676.31
2022-09-13T00:14:10.425Z,99676.59
2022-09-13T00:16:58.858Z,99667.53
2022-09-13T00:19:47.991Z,99660.59
2022-09-13T00:22:36.711Z,99661.38
2022-09-13T00:25:25.122Z,99658.91
2022-09-13T00:28:13.568Z,99659.25
2022-09-13T00:31:04.593Z,99625.50
2022-09-13T00:33:53.346Z,99652.63
2022-09-13T00:36:41.753Z,99638.53
2022-09-13T00:39:30.231Z,99635.03
2022-09-13T00:42:19.144Z,99645.00
2022-09-13T00:45:16.748Z,99649.81
2022-09-13T00:48:09.264Z,99606.06
2022-09-13T00:50:57.845Z,99652.06
2022-09-13T00:53:51.392Z,99646.13
2022-09-13T00:56:42.616Z,99649.19
2022-09-13T00:59:33.841Z,99655.31
2022-09-13T01:02:22.776Z,99647.44
2022-09-13T01:05:13.047Z,99639.41
2022-09-13T01:08:02.316Z,99639.41
2022-09-13T01:10:51.982Z,99649.94
2022-09-13T01:13:40.827Z,99650.66
2022-09-13T01:16:29.332Z,99641.97
2022-09-13T01:19:18.340Z,99537.13
2022-09-13T01:22:44.357Z,99658.50
2022-09-13T01:25:52.073Z,99652.69
2022-09-13T01:28:55.660Z,99618.38
2022-09-13T01:31:49.739Z,99660.97
2022-09-13T01:34:46.854Z,99660.31
2022-09-13T01:37:44.156Z,99656.66
2022-09-13T01:40:49.304Z,99663.78
2022-09-13T01:43:45.427Z,99676.91
2022-09-13T01:46:39.237Z,99679.97
2022-09-13T01:49:33.461Z,99677.66
2022-09-13T01:52:25.822Z,99675.66
2022-09-13T01:55:23.192Z,99674.25
2022-09-13T01:58:20.016Z,99670.28
2022-09-13T02:01:13.548Z,99661.25
2022-09-13T02:04:06.280Z,99677.88
2022-09-13T02:07:02.293Z,99649.06
2022-09-13T02:09:52.331Z,99655.63
2022-09-13T02:12:43.509Z,99683.63
2022-09-13T02:15:35.683Z,99663.84
2022-09-13T02:18:28.020Z,99688.47
2022-09-13T02:21:19.039Z,99686.00
2022-09-13T02:24:11.181Z,99682.56
2022-09-13T02:27:03.570Z,99680.38
2022-09-13T02:29:54.203Z,99658.69
2022-09-13T02:32:44.260Z,99666.63
2022-09-13T02:35:35.187Z,99658.47
2022-09-13T02:38:28.023Z,99662.47
2022-09-13T02:41:22.158Z,99657.53
2022-09-13T02:44:14.186Z,99660.22
2022-09-13T02:47:12.064Z,99652.38
2022-09-13T02:50:09.185Z,99656.00
2022-09-13T02:53:04.149Z,99645.47
2022-09-13T02:55:57.985Z,99636.66
2022-09-13T02:58:53.396Z,99647.09
2022-09-13T03:01:42.762Z,99659.88
2022-09-13T03:04:31.406Z,99669.47
2022-09-13T03:07:19.904Z,99668.28
2022-09-13T03:10:11.227Z,99657.19
2022-09-13T03:13:12.278Z,99658.72
2022-09-13T03:16:07.950Z,99650.03
2022-09-13T03:19:09.775Z,99641.34
2022-09-13T03:22:16.098Z,99630.56
2022-09-13T03:25:08.762Z,99649.09
2022-09-13T03:28:04.019Z,99640.09
2022-09-13T03:30:56.730Z,99634.19
2022-09-13T03:33:52.176Z,99617.94
2022-09-13T03:36:45.547Z,99627.78
2022-09-13T03:39:37.912Z,99636.78
2022-09-13T03:42:31.218Z,99633.84
2022-09-13T03:45:23.376Z,99633.41
2022-09-13T03:48:13.123Z,99625.19
2022-09-13T03:51:03.034Z,99631.50
2022-09-13T03:53:56.268Z,99631.41
2022-09-13T03:56:44.975Z,99631.97
2022-09-13T03:59:33.381Z,99624.25
2022-09-13T04:02:23.295Z,99618.25
2022-09-13T04:05:11.820Z,99630.69
2022-09-13T04:08:01.992Z,99626.47
2022-09-13T04:10:52.005Z,99641.34
2022-09-13T04:13:41.277Z,99649.09
2022-09-13T04:16:29.839Z,99637.72
2022-09-13T04:19:18.296Z,99653.03
2022-09-13T04:22:06.752Z,99648.25
2022-09-13T04:25:01.474Z,99642.88
2022-09-13T04:27:55.059Z,99637.31
2022-09-13T04:30:45.000Z,99644.25
2022-09-13T04:33:33.440Z,99652.47
2022-09-13T04:36:22.891Z,99640.63
2022-09-13T04:39:11.578Z,99615.84
2022-09-13T04:42:02.351Z,99648.31
2022-09-13T04:44:50.807Z,99648.81
2022-09-13T04:47:39.249Z,99661.47
2022-09-13T04:50:27.981Z,99662.25
2022-09-13T04:53:16.414Z,99667.91
2022-09-13T04:56:05.838Z,99666.88
2022-09-13T04:58:56.567Z,99682.56
2022-09-13T05:01:45.180Z,99664.41
2022-09-13T05:04:34.007Z,99683.75
2022-09-13T05:07:22.536Z,99666.78
2022-09-13T05:10:12.763Z,99670.50
2022-09-13T05:13:03.849Z,99671.69
2022-09-13T05:15:56.853Z,99684.22
2022-09-13T05:18:45.529Z,99685.28
2022-09-13T05:21:34.064Z,99680.81
2022-09-13T05:24:22.562Z,99686.22
2022-09-13T05:27:11.976Z,99694.19
2022-09-13T05:30:00.390Z,99693.25
2022-09-13T05:32:50.180Z,99691.50
2022-09-13T05:35:41.657Z,99689.88
2022-09-13T05:38:30.438Z,99685.16
2022-09-13T05:41:18.888Z,99692.19
2022-09-13T05:44:12.872Z,99687.16
2022-09-13T05:47:02.111Z,99708.25
2022-09-13T05:50:09.242Z,99712.94
2022-09-13T05:52:58.245Z,99695.47
2022-09-13T05:55:47.192Z,99719.50
2022-09-13T05:58:35.994Z,99724.88
2022-09-13T06:01:26.042Z,99720.53
2022-09-13T06:04:14.699Z,99721.50
2022-09-13T06:07:04.635Z,99716.22
2022-09-13T06:09:53.397Z,99715.75
2022-09-13T06:12:41.936Z,99714.00
2022-09-13T06:15:30.392Z,99701.66
2022-09-13T06:18:19.244Z,99703.63
2022-09-13T06:21:09.548Z,99696.09
2022-09-13T06:23:59.393Z,99708.56
2022-09-13T06:26:47.846Z,99712.97
2022-09-13T06:29:36.279Z,99704.81
2022-09-13T06:32:24.754Z,99689.38
2022-09-13T06:35:13.151Z,99681.81
2022-09-13T06:38:01.569Z,99672.25
2022-09-13T06:41:00.760Z,99686.16
2022-09-13T06:43:49.318Z,99665.75
2022-09-13T06:46:37.836Z,99650.56
2022-09-13T06:49:26.416Z,99683.41
2022-09-13T06:52:14.896Z,99688.72
2022-09-13T06:55:03.489Z,99684.38
2022-09-13T06:57:53.765Z,99667.13
2022-09-13T07:00:42.253Z,99671.31
2022-09-13T07:03:30.734Z,99679.34
2022-09-13T07:06:22.584Z,99651.16
2022-09-13T07:09:14.025Z,99693.94
2022-09-13T07:12:02.903Z,99672.28
2022-09-13T07:14:52.740Z,99666.09
2022-09-13T07:17:41.180Z,99667.94
2022-09-13T07:20:29.971Z,99637.44
2022-09-13T07:23:18.422Z,99654.28
2022-09-13T07:26:08.235Z,99441.59
2022-09-13T07:28:58.296Z,99656.88
2022-09-13T07:31:49.667Z,99620.72
2022-09-13T07:34:38.144Z,99653.69
2022-09-13T07:37:26.591Z,99640.66
2022-09-13T07:40:15.392Z,99629.53
2022-09-13T07:43:03.911Z,99651.31
2022-09-13T07:45:58.828Z,99658.41
2022-09-13T07:48:50.504Z,99659.81
2022-09-13T07:51:40.294Z,99646.50
2022-09-13T07:54:28.722Z,99661.22
2022-09-13T07:57:17.185Z,99654.44
2022-09-13T08:00:07.065Z,99654.78
2022-09-13T08:02:55.501Z,99647.50
2022-09-13T08:05:45.362Z,99642.34
2022-09-13T08:08:34.471Z,99649.19
2022-09-13T08:11:24.152Z,99647.63
2022-09-13T08:14:14.130Z,99648.69
2022-09-13T08:17:02.579Z,99643.03
2022-09-13T08:19:52.020Z,99650.34
2022-09-13T08:22:41.906Z,99647.13
2022-09-13T08:25:31.595Z,99652.56
2022-09-13T08:28:26.869Z,99658.22
2022-09-13T08:31:19.847Z,99627.69
2022-09-13T08:34:08.925Z,99656.25
2022-09-13T08:36:57.394Z,99657.25
2022-09-13T08:39:47.341Z,99652.03
2022-09-13T08:42:48.105Z,99507.53
2022-09-13T08:45:36.671Z,99660.34
2022-09-13T08:48:29.263Z,99661.94
2022-09-13T08:51:30.708Z,99664.03
2022-09-13T08:54:20.208Z,99649.91
2022-09-13T08:57:14.371Z,99668.03
2022-09-13T09:00:11.337Z,99671.44
2022-09-13T09:03:18.175Z,99669.84
2022-09-13T09:06:14.278Z,99650.59
2022-09-13T09:09:05.955Z,99652.53
2022-09-13T09:12:00.807Z,99653.53
2022-09-13T09:14:58.668Z,99656.91
2022-09-13T09:17:53.008Z,99665.03
2022-09-13T09:20:43.080Z,99672.13
2022-09-13T09:23:35.679Z,99670.50
2022-09-13T09:26:26.424Z,99682.47
2022-09-13T09:29:24.248Z,99677.34
2022-09-13T09:32:24.469Z,99687.59
2022-09-13T09:35:20.142Z,99705.34
2022-09-13T09:38:24.447Z,99703.72
2022-09-13T09:41:18.005Z,99691.78
2022-09-13T09:44:17.659Z,99693.75
2022-09-13T09:47:11.927Z,99684.28
2022-09-13T09:50:11.863Z,99674.41
2022-09-13T09:53:04.022Z,99676.63
2022-09-13T09:55:57.235Z,99682.06
2022-09-13T09:58:47.441Z,99667.44
2022-09-13T10:01:39.979Z,99682.78
2022-09-13T10:04:29.259Z,99691.81
2022-09-13T10:07:27.195Z,99661.44
2022-09-13T10:10:23.133Z,99687.88
2022-09-13T10:13:16.925Z,99686.25
2022-09-13T10:16:07.631Z,99677.09
2022-09-13T10:18:56.275Z,99669.25
2022-09-13T10:21:44.871Z,99678.00
2022-09-13T10:24:34.728Z,99667.50
2022-09-13T10:27:27.188Z,99668.44
2022-09-13T10:30:31.573Z,99669.91
2022-09-13T10:33:27.079Z,99676.00
2022-09-13T10:36:35.265Z,99673.44
2022-09-13T10:39:28.026Z,99666.28
2022-09-13T10:42:22.327Z,99661.81
2022-09-13T10:45:21.958Z,99674.00
2022-09-13T10:48:14.012Z,99671.69
2022-09-13T10:51:05.840Z,99663.09
2022-09-13T10:54:10.382Z,99690.44
2022-09-13T10:59:53.673Z,99688.88
2022-09-13T11:03:04.241Z,99687.31
2022-09-13T11:05:58.301Z,99683.41
2022-09-13T11:08:54.449Z,99681.97
2022-09-13T11:11:46.805Z,99685.56
2022-09-13T11:14:48.943Z,99675.88
2022-09-13T11:17:58.164Z,99671.19
2022-09-13T11:20:51.095Z,99653.47
2022-09-13T11:24:12.387Z,99660.91
2022-09-13T11:27:04.634Z,99644.03
2022-09-13T11:30:05.086Z,99652.41
2022-09-13T11:33:04.449Z,99655.09
2022-09-13T11:36:12.155Z,99660.44
2022-09-13T11:39:08.293Z,99658.22
2022-09-13T11:42:05.206Z,99663.66
2022-09-13T11:45:21.820Z,99662.41
2022-09-13T11:48:32.484Z,99656.00
2022-09-13T11:51:28.034Z,99652.34
2022-09-13T11:54:30.662Z,99645.50
2022-09-13T11:57:22.519Z,99632.06
2022-09-13T12:00:20.994Z,99619.97
2022-09-13T12:03:17.165Z,99616.06
2022-09-13T12:06:09.086Z,99609.91
2022-09-13T12:09:00.915Z,99597.28
2022-09-13T12:11:53.992Z,99578.66
2022-09-13T12:14:46.904Z,99581.25
2022-09-13T12:17:41.100Z,99581.09
2022-09-13T12:20:34.011Z,99583.84
2022-09-13T12:23:26.302Z,99567.66
2022-09-13T12:26:19.892Z,99572.31
2022-09-13T12:29:15.578Z,99574.25
2022-09-13T12:32:06.188Z,99546.44
2022-09-13T12:34:59.651Z,99553.69
2022-09-13T12:38:14.019Z,99545.38
2022-09-13T12:41:27.055Z,99559.59
2022-09-13T12:44:39.634Z,99553.88
2022-09-13T12:47:51.047Z,99554.81
2022-09-13T12:51:11.811Z,99555.03
2022-09-13T12:54:17.851Z,99563.91
2022-09-13T12:57:18.246Z,99538.28
2022-09-13T13:00:20.324Z,99543.84
2022-09-13T13:03:17.273Z,99552.00
2022-09-13T13:06:11.533Z,99544.78
2022-09-13T13:09:03.443Z,99526.19
2022-09-13T13:11:54.520Z,99522.94
2022-09-13T13:14:53.347Z,99526.44
2022-09-13T13:17:46.326Z,99524.34
2022-09-13T13:20:48.784Z,99522.66
2022-09-13T13:23:39.126Z,99522.72
2022-09-13T13:26:47.854Z,99511.00
2022-09-13T13:29:37.709Z,99512.28
2022-09-13T13:32:26.174Z,99509.81
2022-09-13T13:35:31.022Z,99510.56
2022-09-13T13:38:52.936Z,99508.09
2022-09-13T13:41:46.920Z,99507.59
2022-09-13T13:45:08.970Z,99506.13
2022-09-13T13:48:11.163Z,99506.81
2022-09-13T13:51:19.556Z,99498.72
2022-09-13T13:54:36.439Z,99497.16
2022-09-13T13:57:27.527Z,99483.38
2022-09-13T14:00:18.055Z,99474.38
2022-09-13T14:03:16.994Z,99476.00
2022-09-13T14:06:12.460Z,99468.03
2022-09-13T14:09:09.471Z,99373.00
2022-09-13T14:12:19.105Z,99456.88
2022-09-13T14:15:18.966Z,99464.44
2022-09-13T14:18:39.497Z,99465.38
2022-09-13T14:21:29.453Z,99451.63
2022-09-13T14:24:19.820Z,99356.13
2022-09-13T14:27:12.418Z,99449.19
2022-09-13T14:30:03.390Z,99432.63
2022-09-13T14:32:54.299Z,99426.78
2022-09-13T14:35:44.167Z,99426.28
2022-09-13T14:38:35.472Z,99395.22
2022-09-13T14:41:31.435Z,99413.44
2022-09-13T14:44:28.447Z,99417.00
2022-09-13T14:47:22.459Z,99363.72
2022-09-13T14:50:14.886Z,99405.94
2022-09-13T14:53:06.401Z,99399.28
2022-09-13T14:55:57.548Z,99397.03
2022-09-13T14:58:48.535Z,99394.66
2022-09-13T15:01:37.128Z,99379.41
2022-09-13T15:04:26.026Z,99370.53
2022-09-13T15:07:22.727Z,99367.91
2022-09-13T15:10:22.986Z,99359.91
2022-09-13T15:13:12.164Z,99365.16
2022-09-13T15:16:01.306Z,99352.03
2022-09-13T15:18:49.855Z,99345.69
2022-09-13T15:21:38.347Z,99345.53
2022-09-13T15:24:32.471Z,99305.56
2022-09-13T15:27:25.406Z,99297.94
2022-09-13T15:30:22.241Z,99335.13
2022-09-13T15:33:23.694Z,99318.50
2022-09-13T15:36:17.502Z,99326.25
2022-09-13T15:39:17.941Z,99317.03
2022-09-13T15:42:06.584Z,99321.56
2022-09-13T15:44:56.892Z,99308.84
2022-09-13T15:47:49.608Z,99307.41
2022-09-13T15:50:38.643Z,99314.84
2022-09-13T15:53:27.159Z,99311.16
2022-09-13T15:56:18.934Z,99313.09
2022-09-13T15:59:07.454Z,99291.81
2022-09-13T16:01:57.438Z,99301.50
2022-09-13T16:04:45.968Z,99313.28
2022-09-13T16:07:34.502Z,99319.06
2022-09-13T16:10:24.129Z,99250.81
2022-09-13T16:13:12.596Z,99302.16
2022-09-13T16:16:01.213Z,99294.25
2022-09-13T16:18:51.116Z,99299.44
2022-09-13T16:21:39.603Z,99283.00
2022-09-13T16:24:28.433Z,99303.53
2022-09-13T16:27:18.383Z,99298.19
2022-09-13T16:30:08.297Z,99309.38
2022-09-13T16:32:56.861Z,99303.25
2022-09-13T16:35:47.463Z,99280.44
2022-09-13T16:38:35.962Z,99278.81
2022-09-13T16:41:24.756Z,99281.91
2022-09-13T16:44:14.166Z,99271.88
2022-09-13T16:47:02.749Z,99279.78
2022-09-13T16:49:51.262Z,99277.69
2022-09-13T16:52:41.295Z,99282.06
2022-09-13T16:55:10.319Z,99289.97
2022-09-13T16:57:38.580Z,99295.63
2022-09-13T17:00:10.714Z,99291.44
2022-09-13T17:02:39.411Z,99284.94
2022-09-13T17:05:08.477Z,99278.63
2022-09-13T17:07:37.457Z,99276.19
2022-09-13T17:10:16.100Z,99280.50
2022-09-13T17:12:44.506Z,99272.59
2022-09-13T17:15:31.332Z,99268.06
2022-09-13T17:18:19.900Z,99274.34
2022-09-13T17:21:08.404Z,99267.84
2022-09-13T17:23:56.934Z,99266.22
2022-09-13T17:26:47.260Z,99158.59
2022-09-13T17:29:36.156Z,99275.09
2022-09-13T17:32:24.600Z,99242.06
2022-09-13T17:35:14.066Z,99162.94
2022-09-13T17:38:03.319Z,99249.16
2022-09-13T17:40:59.956Z,99260.59
2022-09-13T17:43:49.972Z,99265.03
2022-09-13T17:46:38.610Z,99267.72
2022-09-13T17:49:27.134Z,99270.69
2022-09-13T17:52:15.753Z,99272.53
2022-09-13T18:00:42.723Z,99260.22
2022-09-13T18:03:31.729Z,99266.31
2022-09-13T18:06:20.378Z,99244.66
2022-09-13T18:09:09.866Z,99262.47
2022-09-13T18:11:58.451Z,99291.25
2022-09-13T18:14:47.102Z,99293.69
2022-09-13T18:17:37.013Z,99300.38
2022-09-13T18:20:25.782Z,99292.06
2022-09-13T18:23:14.320Z,99304.22
2022-09-13T18:26:08.742Z,99308.47
2022-09-13T18:29:01.757Z,99302.19
2022-09-13T18:31:50.282Z,99309.72
2022-09-13T18:34:42.132Z,99307.47
2022-09-13T18:37:33.223Z,99304.41
2022-09-13T18:40:22.993Z,99303.03
2022-09-13T18:43:11.622Z,99316.25
2022-09-13T18:46:04.578Z,99313.16
2022-09-13T18:48:55.148Z,99321.66
2022-09-13T18:51:46.298Z,99198.22
2022-09-13T18:54:35.485Z,99325.91
2022-09-13T18:57:24.035Z,99190.25
2022-09-13T19:00:13.242Z,99328.03
2022-09-13T19:03:12.250Z,99323.84
2022-09-13T19:06:12.154Z,99318.16
2022-09-13T19:09:02.817Z,99331.91
2022-09-13T19:11:52.600Z,99322.72
2022-09-13T19:14:41.129Z,99325.50
2022-09-13T19:17:29.653Z,99327.97
2022-09-13T19:20:19.294Z,99322.34
2022-09-13T19:23:07.883Z,99324.78
2022-09-13T19:26:03.810Z,99347.72
2022-09-13T19:28:54.911Z,99345.03
2022-09-13T19:31:44.785Z,99337.97
2022-09-13T19:34:33.316Z,99340.75
2022-09-13T19:37:21.818Z,99338.38
2022-09-13T19:40:11.232Z,99335.16
2022-09-13T19:43:01.441Z,99343.06
2022-09-13T19:45:56.231Z,99347.97
2022-09-13T19:48:46.712Z,99326.50
2022-09-13T19:51:37.128Z,99338.19
2022-09-13T19:54:25.658Z,99331.44
2022-09-13T19:57:14.211Z,99221.34
2022-09-13T20:00:05.364Z,99324.75
2022-09-13T20:02:53.807Z,99318.09
2022-09-13T20:05:42.341Z,99324.56
2022-09-13T20:08:31.471Z,99317.50
2022-09-13T20:11:20.820Z,99322.13
2022-09-13T20:14:09.426Z,99312.38
2022-09-13T20:16:59.603Z,99315.94
2022-09-13T20:19:50.354Z,99315.97
2022-09-13T20:22:39.089Z,99324.16
2022-09-13T20:25:27.535Z,99315.97
2022-09-13T20:28:16.841Z,99318.19
2022-09-13T20:31:05.597Z,99315.75
2022-09-13T20:33:59.332Z,99313.81
2022-09-13T20:36:48.034Z,99304.03
2022-09-13T20:39:36.526Z,99310.06
2022-09-13T20:42:24.984Z,99298.63
2022-09-13T20:45:13.692Z,99284.78
2022-09-13T20:48:02.251Z,99270.78
2022-09-13T20:50:58.471Z,99306.59
2022-09-13T20:53:46.960Z,99309.63
2022-09-13T20:56:36.117Z,99309.97
2022-09-13T20:59:24.603Z,99309.72
2022-09-13T21:02:13.198Z,99311.38
2022-09-13T21:05:01.806Z,99310.91
2022-09-13T21:08:09.205Z,99300.03
2022-09-13T21:10:58.475Z,99294.88
2022-09-13T21:13:48.869Z,99287.59
2022-09-13T21:16:39.707Z,99261.56
2022-09-13T21:19:29.852Z,99282.09
2022-09-13T21:22:18.314Z,99279.94
2022-09-13T21:25:09.291Z,99282.66
2022-09-13T21:27:57.887Z,99281.25
2022-09-13T21:30:56.644Z,99282.84
2022-09-13T21:33:45.717Z,99278.78
2022-09-13T21:36:35.562Z,99272.53
2022-09-13T21:39:24.294Z,99275.53
2022-09-13T21:42:15.862Z,99267.66
2022-09-13T21:45:05.820Z,99240.03
2022-09-13T21:47:54.630Z,99273.06
2022-09-13T21:50:43.085Z,99274.31
2022-09-13T21:53:33.995Z,99265.88
2022-09-13T21:56:23.902Z,99266.16
2022-09-13T21:59:15.766Z,99257.72
2022-09-13T22:02:04.327Z,99248.53
2022-09-13T22:04:53.034Z,99254.03
2022-09-13T22:07:41.661Z,99247.22
2022-09-13T22:10:30.154Z,99246.72
2022-09-13T22:13:18.599Z,99250.84
2022-09-13T22:16:10.153Z,99264.94
2022-09-13T22:19:01.789Z,99253.78
2022-09-13T22:21:55.038Z,99247.00
2022-09-13T22:24:46.015Z,99245.91
2022-09-13T22:27:37.113Z,99246.47
2022-09-13T22:30:25.554Z,99224.00
2022-09-13T22:33:15.390Z,99222.06
2022-09-13T22:36:06.124Z,99190.84
2022-09-13T22:38:55.216Z,99197.13
2022-09-13T22:41:43.869Z,99183.44
2022-09-13T22:44:32.331Z,99180.16
2022-09-13T22:47:20.941Z,99161.22
2022-09-13T22:50:10.998Z,99155.75
2022-09-13T22:52:59.491Z,99162.53
2022-09-13T22:55:48.496Z,99177.31
2022-09-13T22:58:37.017Z,99169.66
2022-09-13T23:01:26.607Z,99173.47
2022-09-13T23:04:15.318Z,99171.50
2022-09-13T23:07:05.197Z,99178.63
2022-09-13T23:09:53.620Z,99181.34
2022-09-13T23:12:42.019Z,99169.66
2022-09-13T23:15:30.496Z,99166.66
2022-09-13T23:18:18.895Z,99174.31
2022-09-13T23:21:07.622Z,99167.22
2022-09-13T23:23:57.560Z,99169.44
2022-09-13T23:26:46.577Z,99174.06
2022-09-13T23:29:35.629Z,99176.78
2022-09-13T23:32:24.761Z,99166.16
2022-09-13T23:35:13.209Z,99167.28
2022-09-13T23:38:01.658Z,99176.81
2022-09-13T23:40:51.485Z,99210.16
2022-09-13T23:43:39.913Z,99222.97
2022-09-13T23:46:28.968Z,99207.22
2022-09-13T23:49:17.610Z,99187.97
2022-09-13T23:52:06.162Z,99189.59
2022-09-13T23:54:54.615Z,99172.78
2022-09-13T23:57:44.404Z,99189.31
